sensor_id;sensor_type;location;lat;lon;timestamp;pressure;altitude;pressure_sealevel;temperature
15062;BMP180;7630;50.306;8.566;2023-08-08T00:03:24;97870.00;;;15.90
15062;BMP180;7630;50.306;8.566;2023-08-08T00:07:26;97872.00;;;16.00
15062;BMP180;7630;50.306;8.566;2023-08-08T00:11:30;97877.00;;;15.90
15062;BMP180;7630;50.306;8.566;2023-08-08T00:15:31;97873.00;;;15.80
15062;BMP180;7630;50.306;8.566;2023-08-08T00:19:33;97882.00;;;15.50
15062;BMP180;7630;50.306;8.566;2023-08-08T00:23:35;97880.00;;;15.50
15062;BMP180;7630;50.306;8.566;2023-08-08T00:27:36;97902.00;;;15.60
15062;BMP180;7630;50.306;8.566;2023-08-08T00:31:39;97884.00;;;15.80
15062;BMP180;7630;50.306;8.566;2023-08-08T00:35:40;97877.00;;;15.80
15062;BMP180;7630;50.306;8.566;2023-08-08T00:39:41;97880.00;;;15.90
15062;BMP180;7630;50.306;8.566;2023-08-08T00:43:44;97873.00;;;15.90
15062;BMP180;7630;50.306;8.566;2023-08-08T00:47:46;97868.00;;;16.10
15062;BMP180;7630;50.306;8.566;2023-08-08T00:51:47;97857.00;;;16.00
15062;BMP180;7630;50.306;8.566;2023-08-08T00:55:49;97859.00;;;15.90
15062;BMP180;7630;50.306;8.566;2023-08-08T00:59:51;97846.00;;;15.90
15062;BMP180;7630;50.306;8.566;2023-08-08T01:03:53;97846.00;;;15.80
15062;BMP180;7630;50.306;8.566;2023-08-08T01:08:03;97845.00;;;15.50
15062;BMP180;7630;50.306;8.566;2023-08-08T01:12:02;97841.00;;;15.30
15062;BMP180;7630;50.306;8.566;2023-08-08T01:16:04;97842.00;;;15.20
15062;BMP180;7630;50.306;8.566;2023-08-08T01:20:07;97850.00;;;15.20
15062;BMP180;7630;50.306;8.566;2023-08-08T01:28:21;97833.00;;;15.30
15062;BMP180;7630;50.306;8.566;2023-08-08T01:32:23;97834.00;;;15.20
15062;BMP180;7630;50.306;8.566;2023-08-08T01:36:37;97829.00;;;15.10
15062;BMP180;7630;50.306;8.566;2023-08-08T01:40:38;97830.00;;;15.00
15062;BMP180;7630;50.306;8.566;2023-08-08T01:44:41;97827.00;;;14.70
15062;BMP180;7630;50.306;8.566;2023-08-08T01:48:46;97832.00;;;14.80
15062;BMP180;7630;50.306;8.566;2023-08-08T01:52:49;97841.00;;;14.80
15062;BMP180;7630;50.306;8.566;2023-08-08T01:56:50;97831.00;;;14.80
15062;BMP180;7630;50.306;8.566;2023-08-08T02:00:51;97827.00;;;14.60
15062;BMP180;7630;50.306;8.566;2023-08-08T02:04:52;97815.00;;;14.80
15062;BMP180;7630;50.306;8.566;2023-08-08T02:08:53;97821.00;;;14.60
15062;BMP180;7630;50.306;8.566;2023-08-08T02:12:55;97812.00;;;14.80
15062;BMP180;7630;50.306;8.566;2023-08-08T02:16:56;97813.00;;;14.40
15062;BMP180;7630;50.306;8.566;2023-08-08T02:20:57;97804.00;;;14.70
15062;BMP180;7630;50.306;8.566;2023-08-08T02:24:58;97798.00;;;14.60
15062;BMP180;7630;50.306;8.566;2023-08-08T02:28:59;97800.00;;;14.60
15062;BMP180;7630;50.306;8.566;2023-08-08T02:33:00;97805.00;;;14.60
15062;BMP180;7630;50.306;8.566;2023-08-08T02:37:01;97809.00;;;14.80
15062;BMP180;7630;50.306;8.566;2023-08-08T02:41:02;97803.00;;;14.60
15062;BMP180;7630;50.306;8.566;2023-08-08T02:45:05;97799.00;;;14.70
15062;BMP180;7630;50.306;8.566;2023-08-08T02:49:06;97800.00;;;15.00
15062;BMP180;7630;50.306;8.566;2023-08-08T02:53:07;97809.00;;;14.80
15062;BMP180;7630;50.306;8.566;2023-08-08T02:57:08;97816.00;;;15.30
15062;BMP180;7630;50.306;8.566;2023-08-08T03:01:13;97811.00;;;15.30
15062;BMP180;7630;50.306;8.566;2023-08-08T03:05:16;97808.00;;;15.10
15062;BMP180;7630;50.306;8.566;2023-08-08T03:09:17;97813.00;;;14.80
15062;BMP180;7630;50.306;8.566;2023-08-08T03:13:18;97807.00;;;15.20
15062;BMP180;7630;50.306;8.566;2023-08-08T03:17:20;97806.00;;;15.20
15062;BMP180;7630;50.306;8.566;2023-08-08T03:21:22;97798.00;;;15.40
15062;BMP180;7630;50.306;8.566;2023-08-08T03:25:23;97798.00;;;15.10
15062;BMP180;7630;50.306;8.566;2023-08-08T03:29:23;97795.00;;;15.50
15062;BMP180;7630;50.306;8.566;2023-08-08T03:33:25;97798.00;;;15.80
15062;BMP180;7630;50.306;8.566;2023-08-08T03:37:26;97796.00;;;15.90
15062;BMP180;7630;50.306;8.566;2023-08-08T03:41:27;97800.00;;;15.80
15062;BMP180;7630;50.306;8.566;2023-08-08T03:45:28;97786.00;;;15.40
15062;BMP180;7630;50.306;8.566;2023-08-08T03:49:30;97792.00;;;15.70
15062;BMP180;7630;50.306;8.566;2023-08-08T03:53:31;97797.00;;;15.80
15062;BMP180;7630;50.306;8.566;2023-08-08T03:57:32;97786.00;;;15.60
15062;BMP180;7630;50.306;8.566;2023-08-08T04:01:33;97788.00;;;15.70
15062;BMP180;7630;50.306;8.566;2023-08-08T04:05:34;97783.00;;;15.50
15062;BMP180;7630;50.306;8.566;2023-08-08T04:09:35;97782.00;;;15.40
15062;BMP180;7630;50.306;8.566;2023-08-08T04:13:36;97782.00;;;15.20
15062;BMP180;7630;50.306;8.566;2023-08-08T04:17:37;97755.00;;;15.40
15062;BMP180;7630;50.306;8.566;2023-08-08T04:21:39;97779.00;;;15.60
15062;BMP180;7630;50.306;8.566;2023-08-08T04:25:40;97779.00;;;15.60
15062;BMP180;7630;50.306;8.566;2023-08-08T04:29:42;97844.00;;;15.70
15062;BMP180;7630;50.306;8.566;2023-08-08T04:33:43;97785.00;;;15.90
15062;BMP180;7630;50.306;8.566;2023-08-08T04:37:44;97783.00;;;15.90
15062;BMP180;7630;50.306;8.566;2023-08-08T04:41:45;97780.00;;;15.90
15062;BMP180;7630;50.306;8.566;2023-08-08T04:45:46;97783.00;;;15.90
15062;BMP180;7630;50.306;8.566;2023-08-08T04:49:47;97787.00;;;15.90
15062;BMP180;7630;50.306;8.566;2023-08-08T04:53:48;97784.00;;;15.40
15062;BMP180;7630;50.306;8.566;2023-08-08T04:57:49;97776.00;;;15.50
15062;BMP180;7630;50.306;8.566;2023-08-08T05:01:50;97766.00;;;15.40
15062;BMP180;7630;50.306;8.566;2023-08-08T05:05:51;97771.00;;;15.20
15062;BMP180;7630;50.306;8.566;2023-08-08T05:09:52;97766.00;;;15.80
15062;BMP180;7630;50.306;8.566;2023-08-08T05:13:53;97770.00;;;16.30
15062;BMP180;7630;50.306;8.566;2023-08-08T05:17:55;97765.00;;;16.10
15062;BMP180;7630;50.306;8.566;2023-08-08T05:21:56;97761.00;;;16.80
15062;BMP180;7630;50.306;8.566;2023-08-08T05:25:58;97753.00;;;17.10
15062;BMP180;7630;50.306;8.566;2023-08-08T05:29:59;97757.00;;;17.20
15062;BMP180;7630;50.306;8.566;2023-08-08T05:34:00;97753.00;;;16.40
15062;BMP180;7630;50.306;8.566;2023-08-08T05:38:01;97759.00;;;17.00
15062;BMP180;7630;50.306;8.566;2023-08-08T05:42:02;97755.00;;;15.80
15062;BMP180;7630;50.306;8.566;2023-08-08T05:46:04;97765.00;;;15.80
15062;BMP180;7630;50.306;8.566;2023-08-08T05:50:06;97758.00;;;15.10
15062;BMP180;7630;50.306;8.566;2023-08-08T05:54:07;97757.00;;;15.70
15062;BMP180;7630;50.306;8.566;2023-08-08T05:58:09;97754.00;;;16.50
15062;BMP180;7630;50.306;8.566;2023-08-08T06:02:10;97757.00;;;16.70
15062;BMP180;7630;50.306;8.566;2023-08-08T06:06:11;97759.00;;;17.00
15062;BMP180;7630;50.306;8.566;2023-08-08T06:10:13;97761.00;;;16.00
15062;BMP180;7630;50.306;8.566;2023-08-08T06:14:14;97773.00;;;17.30
15062;BMP180;7630;50.306;8.566;2023-08-08T06:18:16;97766.00;;;17.40
15062;BMP180;7630;50.306;8.566;2023-08-08T06:22:18;97762.00;;;17.40
15062;BMP180;7630;50.306;8.566;2023-08-08T06:26:21;97757.00;;;17.90
15062;BMP180;7630;50.306;8.566;2023-08-08T06:30:23;97757.00;;;18.50
15062;BMP180;7630;50.306;8.566;2023-08-08T06:34:24;97753.00;;;17.40
15062;BMP180;7630;50.306;8.566;2023-08-08T06:38:25;97743.00;;;18.70
15062;BMP180;7630;50.306;8.566;2023-08-08T06:42:26;97744.00;;;19.00
15062;BMP180;7630;50.306;8.566;2023-08-08T06:46:27;97747.00;;;18.60
15062;BMP180;7630;50.306;8.566;2023-08-08T06:50:28;97753.00;;;17.80
15062;BMP180;7630;50.306;8.566;2023-08-08T06:54:29;97747.00;;;18.60
15062;BMP180;7630;50.306;8.566;2023-08-08T06:58:30;97757.00;;;18.50
15062;BMP180;7630;50.306;8.566;2023-08-08T07:02:32;97755.00;;;18.00
15062;BMP180;7630;50.306;8.566;2023-08-08T07:06:33;97749.00;;;18.40
15062;BMP180;7630;50.306;8.566;2023-08-08T07:10:35;97747.00;;;17.80
15062;BMP180;7630;50.306;8.566;2023-08-08T07:14:36;97754.00;;;18.70
15062;BMP180;7630;50.306;8.566;2023-08-08T07:18:38;97753.00;;;18.60
15062;BMP180;7630;50.306;8.566;2023-08-08T07:22:39;97539.00;;;19.50
15062;BMP180;7630;50.306;8.566;2023-08-08T07:26:40;97747.00;;;19.00
15062;BMP180;7630;50.306;8.566;2023-08-08T07:30:41;97747.00;;;20.00
15062;BMP180;7630;50.306;8.566;2023-08-08T07:34:43;97755.00;;;20.40
15062;BMP180;7630;50.306;8.566;2023-08-08T07:38:44;97742.00;;;19.60
15062;BMP180;7630;50.306;8.566;2023-08-08T07:42:46;97749.00;;;19.10
15062;BMP180;7630;50.306;8.566;2023-08-08T07:46:47;97738.00;;;19.80
15062;BMP180;7630;50.306;8.566;2023-08-08T07:50:48;97736.00;;;20.20
15062;BMP180;7630;50.306;8.566;2023-08-08T07:54:50;97739.00;;;19.90
15062;BMP180;7630;50.306;8.566;2023-08-08T07:58:51;97737.00;;;19.00
15062;BMP180;7630;50.306;8.566;2023-08-08T08:02:52;97742.00;;;20.10
15062;BMP180;7630;50.306;8.566;2023-08-08T08:06:53;97727.00;;;20.60
15062;BMP180;7630;50.306;8.566;2023-08-08T08:10:54;97733.00;;;20.50
15062;BMP180;7630;50.306;8.566;2023-08-08T08:14:55;97739.00;;;21.20
15062;BMP180;7630;50.306;8.566;2023-08-08T08:18:56;97742.00;;;21.50
15062;BMP180;7630;50.306;8.566;2023-08-08T08:22:57;97747.00;;;22.00
15062;BMP180;7630;50.306;8.566;2023-08-08T08:26:59;97740.00;;;21.70
15062;BMP180;7630;50.306;8.566;2023-08-08T08:31:06;97738.00;;;21.20
15062;BMP180;7630;50.306;8.566;2023-08-08T08:35:09;97741.00;;;21.50
15062;BMP180;7630;50.306;8.566;2023-08-08T08:39:10;97748.00;;;21.70
15062;BMP180;7630;50.306;8.566;2023-08-08T08:43:11;97751.00;;;21.70
15062;BMP180;7630;50.306;8.566;2023-08-08T08:47:12;97754.00;;;19.80
15062;BMP180;7630;50.306;8.566;2023-08-08T08:51:14;97753.00;;;19.80
15062;BMP180;7630;50.306;8.566;2023-08-08T08:55:17;97742.00;;;21.40
15062;BMP180;7630;50.306;8.566;2023-08-08T08:59:18;97747.00;;;22.90
15062;BMP180;7630;50.306;8.566;2023-08-08T09:03:20;97747.00;;;21.80
15062;BMP180;7630;50.306;8.566;2023-08-08T09:07:23;97747.00;;;20.10
15062;BMP180;7630;50.306;8.566;2023-08-08T09:11:27;97773.00;;;19.60
15062;BMP180;7630;50.306;8.566;2023-08-08T09:15:33;97753.00;;;20.30
15062;BMP180;7630;50.306;8.566;2023-08-08T09:19:34;97739.00;;;20.00
15062;BMP180;7630;50.306;8.566;2023-08-08T09:23:37;97744.00;;;21.00
15062;BMP180;7630;50.306;8.566;2023-08-08T09:27:40;97747.00;;;20.30
15062;BMP180;7630;50.306;8.566;2023-08-08T09:31:42;97745.00;;;19.40
15062;BMP180;7630;50.306;8.566;2023-08-08T09:35:44;97741.00;;;20.20
15062;BMP180;7630;50.306;8.566;2023-08-08T09:39:46;97742.00;;;19.90
15062;BMP180;7630;50.306;8.566;2023-08-08T09:43:49;97728.00;;;20.40
15062;BMP180;7630;50.306;8.566;2023-08-08T09:47:51;97739.00;;;20.90
15062;BMP180;7630;50.306;8.566;2023-08-08T09:51:54;97740.00;;;18.80
15062;BMP180;7630;50.306;8.566;2023-08-08T09:55:56;97732.00;;;19.90
15062;BMP180;7630;50.306;8.566;2023-08-08T09:59:58;97739.00;;;20.10
15062;BMP180;7630;50.306;8.566;2023-08-08T10:04:00;97744.00;;;19.70
15062;BMP180;7630;50.306;8.566;2023-08-08T10:08:03;97749.00;;;19.90
15062;BMP180;7630;50.306;8.566;2023-08-08T10:12:06;97746.00;;;19.70
15062;BMP180;7630;50.306;8.566;2023-08-08T10:16:08;97756.00;;;19.70
15062;BMP180;7630;50.306;8.566;2023-08-08T10:20:10;97753.00;;;19.10
15062;BMP180;7630;50.306;8.566;2023-08-08T10:24:12;97742.00;;;19.70
15062;BMP180;7630;50.306;8.566;2023-08-08T10:28:15;97754.00;;;21.80
15062;BMP180;7630;50.306;8.566;2023-08-08T10:32:24;97770.00;;;20.90
15062;BMP180;7630;50.306;8.566;2023-08-08T10:36:26;97755.00;;;19.80
15062;BMP180;7630;50.306;8.566;2023-08-08T10:40:32;97661.00;;;20.60
15062;BMP180;7630;50.306;8.566;2023-08-08T10:44:40;97742.00;;;20.90
15062;BMP180;7630;50.306;8.566;2023-08-08T10:48:54;97761.00;;;20.70
15062;BMP180;7630;50.306;8.566;2023-08-08T10:52:54;97757.00;;;20.50
15062;BMP180;7630;50.306;8.566;2023-08-08T10:56:58;97753.00;;;20.50
15062;BMP180;7630;50.306;8.566;2023-08-08T11:00:59;97750.00;;;21.20
15062;BMP180;7630;50.306;8.566;2023-08-08T11:05:01;97756.00;;;20.70
15062;BMP180;7630;50.306;8.566;2023-08-08T11:09:07;97749.00;;;21.40
15062;BMP180;7630;50.306;8.566;2023-08-08T11:13:09;97736.00;;;20.80
15062;BMP180;7630;50.306;8.566;2023-08-08T11:17:10;97741.00;;;20.30
15062;BMP180;7630;50.306;8.566;2023-08-08T11:21:12;97751.00;;;20.30
15062;BMP180;7630;50.306;8.566;2023-08-08T11:25:15;97758.00;;;20.40
15062;BMP180;7630;50.306;8.566;2023-08-08T11:29:16;97752.00;;;20.00
15062;BMP180;7630;50.306;8.566;2023-08-08T11:33:18;97755.00;;;21.10
15062;BMP180;7630;50.306;8.566;2023-08-08T11:37:19;97766.00;;;19.60
15062;BMP180;7630;50.306;8.566;2023-08-08T11:41:22;97750.00;;;20.70
15062;BMP180;7630;50.306;8.566;2023-08-08T11:45:24;97751.00;;;20.70
15062;BMP180;7630;50.306;8.566;2023-08-08T11:49:25;97758.00;;;20.40
15062;BMP180;7630;50.306;8.566;2023-08-08T11:53:27;97745.00;;;20.60
15062;BMP180;7630;50.306;8.566;2023-08-08T11:57:28;97742.00;;;20.90
15062;BMP180;7630;50.306;8.566;2023-08-08T12:01:31;97748.00;;;21.10
15062;BMP180;7630;50.306;8.566;2023-08-08T12:05:37;97743.00;;;21.40
15062;BMP180;7630;50.306;8.566;2023-08-08T12:09:41;97738.00;;;21.00
15062;BMP180;7630;50.306;8.566;2023-08-08T12:13:43;97737.00;;;21.10
15062;BMP180;7630;50.306;8.566;2023-08-08T12:17:45;97744.00;;;22.30
15062;BMP180;7630;50.306;8.566;2023-08-08T12:21:46;97736.00;;;23.40
15062;BMP180;7630;50.306;8.566;2023-08-08T12:25:48;97740.00;;;22.40
15062;BMP180;7630;50.306;8.566;2023-08-08T12:29:49;97725.00;;;20.70
15062;BMP180;7630;50.306;8.566;2023-08-08T12:33:50;97734.00;;;22.10
15062;BMP180;7630;50.306;8.566;2023-08-08T12:37:53;97736.00;;;21.10
15062;BMP180;7630;50.306;8.566;2023-08-08T12:41:54;97737.00;;;21.50
15062;BMP180;7630;50.306;8.566;2023-08-08T12:45:55;97732.00;;;21.50
15062;BMP180;7630;50.306;8.566;2023-08-08T12:49:56;97752.00;;;22.70
15062;BMP180;7630;50.306;8.566;2023-08-08T12:53:58;97730.00;;;22.00
15062;BMP180;7630;50.306;8.566;2023-08-08T12:57:59;97741.00;;;21.30
15062;BMP180;7630;50.306;8.566;2023-08-08T13:02:00;97740.00;;;19.70
15062;BMP180;7630;50.306;8.566;2023-08-08T13:06:02;97736.00;;;20.20
15062;BMP180;7630;50.306;8.566;2023-08-08T13:10:04;97729.00;;;20.60
15062;BMP180;7630;50.306;8.566;2023-08-08T13:14:05;97732.00;;;21.30
15062;BMP180;7630;50.306;8.566;2023-08-08T13:18:07;97727.00;;;21.20
15062;BMP180;7630;50.306;8.566;2023-08-08T13:22:08;97726.00;;;21.30
15062;BMP180;7630;50.306;8.566;2023-08-08T13:26:09;97744.00;;;21.50
15062;BMP180;7630;50.306;8.566;2023-08-08T13:30:11;97726.00;;;22.60
15062;BMP180;7630;50.306;8.566;2023-08-08T13:34:13;97717.00;;;21.70
15062;BMP180;7630;50.306;8.566;2023-08-08T13:38:15;97723.00;;;21.20
15062;BMP180;7630;50.306;8.566;2023-08-08T13:42:16;97723.00;;;20.80
15062;BMP180;7630;50.306;8.566;2023-08-08T13:46:17;97709.00;;;21.40
15062;BMP180;7630;50.306;8.566;2023-08-08T13:50:18;97716.00;;;20.60
15062;BMP180;7630;50.306;8.566;2023-08-08T13:54:19;97711.00;;;21.00
15062;BMP180;7630;50.306;8.566;2023-08-08T13:58:21;97615.00;;;20.70
15062;BMP180;7630;50.306;8.566;2023-08-08T14:02:23;97712.00;;;20.70
15062;BMP180;7630;50.306;8.566;2023-08-08T14:06:24;97716.00;;;21.00
15062;BMP180;7630;50.306;8.566;2023-08-08T14:10:25;97722.00;;;18.90
15062;BMP180;7630;50.306;8.566;2023-08-08T14:14:26;97712.00;;;19.50
15062;BMP180;7630;50.306;8.566;2023-08-08T14:18:27;97706.00;;;19.50
15062;BMP180;7630;50.306;8.566;2023-08-08T14:22:29;97714.00;;;19.30
15062;BMP180;7630;50.306;8.566;2023-08-08T14:26:30;97715.00;;;20.30
15062;BMP180;7630;50.306;8.566;2023-08-08T14:30:31;97717.00;;;20.50
15062;BMP180;7630;50.306;8.566;2023-08-08T14:34:33;97705.00;;;21.10
15062;BMP180;7630;50.306;8.566;2023-08-08T14:38:35;97721.00;;;21.00
15062;BMP180;7630;50.306;8.566;2023-08-08T14:42:38;97713.00;;;21.10
15062;BMP180;7630;50.306;8.566;2023-08-08T14:46:39;97706.00;;;21.20
15062;BMP180;7630;50.306;8.566;2023-08-08T14:50:40;97709.00;;;21.40
15062;BMP180;7630;50.306;8.566;2023-08-08T14:54:42;97710.00;;;20.50
15062;BMP180;7630;50.306;8.566;2023-08-08T14:58:43;97720.00;;;21.50
15062;BMP180;7630;50.306;8.566;2023-08-08T15:02:44;97716.00;;;21.00
15062;BMP180;7630;50.306;8.566;2023-08-08T15:06:45;97721.00;;;21.40
15062;BMP180;7630;50.306;8.566;2023-08-08T15:10:47;97719.00;;;21.60
15062;BMP180;7630;50.306;8.566;2023-08-08T15:14:48;97721.00;;;22.20
15062;BMP180;7630;50.306;8.566;2023-08-08T15:18:49;97728.00;;;22.30
15062;BMP180;7630;50.306;8.566;2023-08-08T15:22:50;97740.00;;;21.90
15062;BMP180;7630;50.306;8.566;2023-08-08T15:26:52;97745.00;;;21.70
15062;BMP180;7630;50.306;8.566;2023-08-08T15:30:53;97740.00;;;22.00
15062;BMP180;7630;50.306;8.566;2023-08-08T15:34:54;97751.00;;;21.60
15062;BMP180;7630;50.306;8.566;2023-08-08T15:38:55;97754.00;;;21.20
15062;BMP180;7630;50.306;8.566;2023-08-08T15:42:56;97746.00;;;20.00
15062;BMP180;7630;50.306;8.566;2023-08-08T15:46:57;97753.00;;;20.80
15062;BMP180;7630;50.306;8.566;2023-08-08T15:51:00;97751.00;;;20.50
15062;BMP180;7630;50.306;8.566;2023-08-08T15:55:01;97754.00;;;21.10
15062;BMP180;7630;50.306;8.566;2023-08-08T15:59:02;97753.00;;;19.10
15062;BMP180;7630;50.306;8.566;2023-08-08T16:03:03;97746.00;;;20.60
15062;BMP180;7630;50.306;8.566;2023-08-08T16:07:06;97746.00;;;21.30
15062;BMP180;7630;50.306;8.566;2023-08-08T16:11:07;97744.00;;;21.30
15062;BMP180;7630;50.306;8.566;2023-08-08T16:15:08;97740.00;;;22.50
15062;BMP180;7630;50.306;8.566;2023-08-08T16:19:10;97743.00;;;20.60
15062;BMP180;7630;50.306;8.566;2023-08-08T16:23:12;97738.00;;;20.10
15062;BMP180;7630;50.306;8.566;2023-08-08T16:27:13;97737.00;;;20.80
15062;BMP180;7630;50.306;8.566;2023-08-08T16:31:14;97743.00;;;20.40
15062;BMP180;7630;50.306;8.566;2023-08-08T16:35:15;97741.00;;;20.60
15062;BMP180;7630;50.306;8.566;2023-08-08T16:39:17;97742.00;;;20.10
15062;BMP180;7630;50.306;8.566;2023-08-08T16:43:19;97742.00;;;21.40
15062;BMP180;7630;50.306;8.566;2023-08-08T16:47:20;97744.00;;;22.00
15062;BMP180;7630;50.306;8.566;2023-08-08T16:51:22;97742.00;;;21.60
15062;BMP180;7630;50.306;8.566;2023-08-08T16:55:24;97736.00;;;22.40
15062;BMP180;7630;50.306;8.566;2023-08-08T16:59:25;97750.00;;;22.10
15062;BMP180;7630;50.306;8.566;2023-08-08T17:03:26;97744.00;;;22.40
15062;BMP180;7630;50.306;8.566;2023-08-08T17:07:27;97745.00;;;22.10
15062;BMP180;7630;50.306;8.566;2023-08-08T17:11:30;97738.00;;;22.10
15062;BMP180;7630;50.306;8.566;2023-08-08T17:15:31;97746.00;;;22.20
15062;BMP180;7630;50.306;8.566;2023-08-08T17:19:32;97742.00;;;22.20
15062;BMP180;7630;50.306;8.566;2023-08-08T17:23:33;97745.00;;;22.50
15062;BMP180;7630;50.306;8.566;2023-08-08T17:27:34;97749.00;;;22.10
15062;BMP180;7630;50.306;8.566;2023-08-08T17:31:36;97741.00;;;21.80
15062;BMP180;7630;50.306;8.566;2023-08-08T17:35:38;97748.00;;;21.60
15062;BMP180;7630;50.306;8.566;2023-08-08T17:39:39;97739.00;;;21.30
15062;BMP180;7630;50.306;8.566;2023-08-08T17:43:40;97749.00;;;21.50
15062;BMP180;7630;50.306;8.566;2023-08-08T17:47:41;97750.00;;;21.80
15062;BMP180;7630;50.306;8.566;2023-08-08T17:51:42;97747.00;;;21.30
15062;BMP180;7630;50.306;8.566;2023-08-08T17:55:43;97747.00;;;20.90
15062;BMP180;7630;50.306;8.566;2023-08-08T17:59:44;97744.00;;;21.60
15062;BMP180;7630;50.306;8.566;2023-08-08T18:03:45;97753.00;;;21.50
15062;BMP180;7630;50.306;8.566;2023-08-08T18:07:47;97749.00;;;21.60
15062;BMP180;7630;50.306;8.566;2023-08-08T18:11:48;97743.00;;;20.90
15062;BMP180;7630;50.306;8.566;2023-08-08T18:15:49;97739.00;;;20.60
15062;BMP180;7630;50.306;8.566;2023-08-08T18:19:51;97739.00;;;21.50
15062;BMP180;7630;50.306;8.566;2023-08-08T18:23:53;97734.00;;;21.40
15062;BMP180;7630;50.306;8.566;2023-08-08T18:27:54;97727.00;;;20.60
15062;BMP180;7630;50.306;8.566;2023-08-08T18:31:55;97730.00;;;21.40
15062;BMP180;7630;50.306;8.566;2023-08-08T18:35:56;97726.00;;;20.60
15062;BMP180;7630;50.306;8.566;2023-08-08T18:39:58;97737.00;;;21.20
15062;BMP180;7630;50.306;8.566;2023-08-08T18:43:59;97722.00;;;21.20
15062;BMP180;7630;50.306;8.566;2023-08-08T18:48:00;97727.00;;;21.10
15062;BMP180;7630;50.306;8.566;2023-08-08T18:52:01;97727.00;;;20.70
15062;BMP180;7630;50.306;8.566;2023-08-08T18:56:03;97741.00;;;20.10
15062;BMP180;7630;50.306;8.566;2023-08-08T19:00:05;97743.00;;;20.40
15062;BMP180;7630;50.306;8.566;2023-08-08T19:04:08;97743.00;;;20.20
15062;BMP180;7630;50.306;8.566;2023-08-08T19:08:09;97753.00;;;19.90
15062;BMP180;7630;50.306;8.566;2023-08-08T19:12:11;97746.00;;;20.20
15062;BMP180;7630;50.306;8.566;2023-08-08T19:16:12;97736.00;;;20.20
15062;BMP180;7630;50.306;8.566;2023-08-08T19:20:13;97739.00;;;20.20
15062;BMP180;7630;50.306;8.566;2023-08-08T19:24:14;97738.00;;;20.30
15062;BMP180;7630;50.306;8.566;2023-08-08T19:28:17;97741.00;;;19.90
15062;BMP180;7630;50.306;8.566;2023-08-08T19:32:18;97736.00;;;19.90
15062;BMP180;7630;50.306;8.566;2023-08-08T19:36:19;97733.00;;;19.70
15062;BMP180;7630;50.306;8.566;2023-08-08T19:40:20;97735.00;;;19.60
15062;BMP180;7630;50.306;8.566;2023-08-08T19:44:21;97733.00;;;19.50
15062;BMP180;7630;50.306;8.566;2023-08-08T19:48:22;97730.00;;;19.40
15062;BMP180;7630;50.306;8.566;2023-08-08T19:52:23;97738.00;;;19.40
15062;BMP180;7630;50.306;8.566;2023-08-08T19:56:25;97740.00;;;19.30
15062;BMP180;7630;50.306;8.566;2023-08-08T20:00:27;97742.00;;;19.20
15062;BMP180;7630;50.306;8.566;2023-08-08T20:04:29;97740.00;;;19.30
15062;BMP180;7630;50.306;8.566;2023-08-08T20:08:30;97724.00;;;19.50
15062;BMP180;7630;50.306;8.566;2023-08-08T20:12:31;97712.00;;;19.50
15062;BMP180;7630;50.306;8.566;2023-08-08T20:16:32;97705.00;;;19.40
15062;BMP180;7630;50.306;8.566;2023-08-08T20:20:33;97724.00;;;19.60
15062;BMP180;7630;50.306;8.566;2023-08-08T20:24:34;97704.00;;;19.50
15062;BMP180;7630;50.306;8.566;2023-08-08T20:28:35;97706.00;;;19.50
15062;BMP180;7630;50.306;8.566;2023-08-08T20:32:36;97702.00;;;19.30
15062;BMP180;7630;50.306;8.566;2023-08-08T20:36:37;97706.00;;;19.50
15062;BMP180;7630;50.306;8.566;2023-08-08T20:40:38;97714.00;;;19.30
15062;BMP180;7630;50.306;8.566;2023-08-08T20:44:39;97713.00;;;19.30
15062;BMP180;7630;50.306;8.566;2023-08-08T20:48:41;97724.00;;;19.50
15062;BMP180;7630;50.306;8.566;2023-08-08T20:52:42;97728.00;;;19.30
15062;BMP180;7630;50.306;8.566;2023-08-08T20:56:44;97716.00;;;19.70
15062;BMP180;7630;50.306;8.566;2023-08-08T21:00:48;97711.00;;;19.60
15062;BMP180;7630;50.306;8.566;2023-08-08T21:04:49;97704.00;;;19.50
15062;BMP180;7630;50.306;8.566;2023-08-08T21:08:52;97710.00;;;19.50
15062;BMP180;7630;50.306;8.566;2023-08-08T21:12:54;97717.00;;;19.00
15062;BMP180;7630;50.306;8.566;2023-08-08T21:16:55;97727.00;;;19.00
15062;BMP180;7630;50.306;8.566;2023-08-08T21:20:56;97702.00;;;18.00
15062;BMP180;7630;50.306;8.566;2023-08-08T21:24:57;97700.00;;;17.90
15062;BMP180;7630;50.306;8.566;2023-08-08T21:28:58;97697.00;;;17.90
15062;BMP180;7630;50.306;8.566;2023-08-08T21:32:59;97696.00;;;16.80
15062;BMP180;7630;50.306;8.566;2023-08-08T21:37:00;97684.00;;;16.80
15062;BMP180;7630;50.306;8.566;2023-08-08T21:41:02;97679.00;;;16.30
15062;BMP180;7630;50.306;8.566;2023-08-08T21:45:05;97690.00;;;16.40
15062;BMP180;7630;50.306;8.566;2023-08-08T21:49:06;97690.00;;;16.00
15062;BMP180;7630;50.306;8.566;2023-08-08T21:53:07;97698.00;;;15.50
15062;BMP180;7630;50.306;8.566;2023-08-08T21:57:08;97694.00;;;16.40
15062;BMP180;7630;50.306;8.566;2023-08-08T22:01:09;97694.00;;;17.00
15062;BMP180;7630;50.306;8.566;2023-08-08T22:05:10;97671.00;;;17.20
15062;BMP180;7630;50.306;8.566;2023-08-08T22:09:12;97659.00;;;17.40
15062;BMP180;7630;50.306;8.566;2023-08-08T22:13:13;97658.00;;;17.00
15062;BMP180;7630;50.306;8.566;2023-08-08T22:17:15;97644.00;;;17.20
15062;BMP180;7630;50.306;8.566;2023-08-08T22:21:16;97650.00;;;17.00
15062;BMP180;7630;50.306;8.566;2023-08-08T22:25:17;97654.00;;;16.90
15062;BMP180;7630;50.306;8.566;2023-08-08T22:29:19;97646.00;;;17.30
15062;BMP180;7630;50.306;8.566;2023-08-08T22:33:21;97650.00;;;16.30
15062;BMP180;7630;50.306;8.566;2023-08-08T22:37:22;97644.00;;;16.90
15062;BMP180;7630;50.306;8.566;2023-08-08T22:41:23;97643.00;;;16.00
15062;BMP180;7630;50.306;8.566;2023-08-08T22:45:24;97651.00;;;16.30
15062;BMP180;7630;50.306;8.566;2023-08-08T22:49:27;97643.00;;;16.40
15062;BMP180;7630;50.306;8.566;2023-08-08T22:53:29;97638.00;;;15.80
15062;BMP180;7630;50.306;8.566;2023-08-08T22:57:30;97631.00;;;16.40
15062;BMP180;7630;50.306;8.566;2023-08-08T23:01:31;97629.00;;;16.40
15062;BMP180;7630;50.306;8.566;2023-08-08T23:05:32;97619.00;;;16.90
15062;BMP180;7630;50.306;8.566;2023-08-08T23:09:33;97613.00;;;16.60
15062;BMP180;7630;50.306;8.566;2023-08-08T23:13:35;97609.00;;;16.60
15062;BMP180;7630;50.306;8.566;2023-08-08T23:17:36;97605.00;;;16.50
15062;BMP180;7630;50.306;8.566;2023-08-08T23:21:37;97613.00;;;17.00
15062;BMP180;7630;50.306;8.566;2023-08-08T23:25:39;97606.00;;;17.00
15062;BMP180;7630;50.306;8.566;2023-08-08T23:29:40;97592.00;;;16.90
15062;BMP180;7630;50.306;8.566;2023-08-08T23:33:41;97582.00;;;17.00
15062;BMP180;7630;50.306;8.566;2023-08-08T23:37:42;97594.00;;;17.00